createdAt,value
2019-03-23T00:01:20.234Z,65.50
2019-03-23T00:03:50.564Z,70.47
2019-03-23T00:06:30.416Z,61.60
2019-03-23T00:08:52.875Z,79.67
2019-03-23T00:11:23.391Z,64.37
2019-03-23T00:13:53.831Z,70.30
2019-03-23T00:16:24.112Z,66.67
2019-03-23T00:18:54.362Z,67.93
2019-03-23T00:21:24.744Z,73.90
2019-03-23T00:23:55.027Z,71.43
2019-03-23T00:26:25.426Z,66.87
2019-03-23T00:28:55.803Z,79.63
2019-03-23T00:31:26.175Z,68.50
2019-03-23T00:33:56.538Z,71.47
2019-03-23T00:36:26.855Z,78.90
2019-03-23T00:38:57.133Z,75.53
2019-03-23T00:41:27.446Z,65.60
2019-03-23T00:43:57.795Z,73.37
2019-03-23T00:46:28.154Z,64.80
2019-03-23T00:48:58.541Z,64.93
2019-03-23T00:51:28.849Z,63.77
2019-03-23T00:53:59.195Z,66.50
2019-03-23T00:56:29.576Z,72.20
2019-03-23T00:58:59.840Z,70.50
2019-03-23T01:01:30.155Z,67.80
2019-03-23T01:04:03.440Z,66.40
2019-03-23T01:06:33.894Z,69.17
2019-03-23T01:09:06.411Z,68.90
2019-03-23T01:11:36.714Z,69.33
2019-03-23T01:14:06.975Z,86.67
2019-03-23T01:16:38.386Z,72.27
2019-03-23T01:19:08.643Z,61.87
2019-03-23T01:21:38.946Z,67.37
2019-03-23T01:24:09.298Z,67.63
2019-03-23T01:26:39.595Z,74.40
2019-03-23T01:29:09.979Z,62.47
2019-03-23T01:31:40.323Z,67.47
2019-03-23T01:34:10.741Z,75.47
2019-03-23T01:36:41.183Z,67.63
2019-03-23T01:39:11.550Z,71.00
2019-03-23T01:41:41.948Z,58.83
2019-03-23T01:44:12.239Z,63.53
2019-03-23T01:46:42.523Z,64.40
2019-03-23T01:49:12.785Z,65.07
2019-03-23T01:51:43.068Z,60.33
2019-03-23T01:54:13.376Z,60.37
2019-03-23T01:56:43.685Z,63.53
2019-03-23T01:59:13.965Z,59.50
2019-03-23T02:01:44.242Z,66.80
2019-03-23T02:04:14.768Z,63.70
2019-03-23T02:06:45.080Z,64.70
2019-03-23T02:09:15.341Z,60.37
2019-03-23T02:11:45.644Z,59.87
2019-03-23T02:14:16.305Z,55.30
2019-03-23T02:16:46.636Z,61.60
2019-03-23T02:19:16.931Z,63.33
2019-03-23T02:21:47.332Z,65.07
2019-03-23T02:24:17.774Z,56.63
2019-03-23T02:26:48.199Z,56.63
2019-03-23T02:29:18.516Z,59.07
2019-03-23T02:31:48.783Z,62.10
2019-03-23T02:34:19.174Z,53.33
2019-03-23T02:36:49.509Z,57.80
2019-03-23T02:39:19.849Z,58.83
2019-03-23T02:41:50.371Z,66.23
2019-03-23T02:44:20.685Z,60.00
2019-03-23T02:46:51.040Z,60.47
2019-03-23T02:49:21.329Z,56.50
2019-03-23T02:51:51.626Z,51.33
2019-03-23T02:54:22.131Z,58.90
2019-03-23T02:56:52.542Z,54.63
2019-03-23T02:59:22.830Z,56.23
2019-03-23T03:01:53.069Z,55.67
2019-03-23T03:04:23.425Z,57.17
2019-03-23T03:06:53.741Z,59.27
2019-03-23T03:09:24.135Z,56.93
2019-03-23T03:11:56.175Z,60.37
2019-03-23T03:14:26.554Z,57.57
2019-03-23T03:16:56.936Z,56.60
2019-03-23T03:19:27.337Z,56.80
2019-03-23T03:21:57.753Z,56.40
2019-03-23T03:24:29.381Z,53.33
2019-03-23T03:26:59.761Z,57.07
2019-03-23T03:29:30.215Z,48.73
2019-03-23T03:32:00.611Z,50.97
2019-03-23T03:34:32.593Z,53.83
2019-03-23T03:37:03.000Z,53.07
2019-03-23T03:39:33.258Z,50.43
2019-03-23T03:42:04.372Z,52.03
2019-03-23T03:44:34.804Z,46.67
2019-03-23T03:47:05.172Z,58.17
2019-03-23T03:49:35.453Z,53.67
2019-03-23T03:52:05.853Z,51.07
2019-03-23T03:54:36.209Z,54.80
2019-03-23T03:57:06.528Z,46.77
2019-03-23T03:59:36.885Z,51.43
2019-03-23T04:02:07.266Z,49.17
2019-03-23T04:04:37.736Z,54.90
2019-03-23T04:07:08.104Z,48.07
2019-03-23T04:09:40.431Z,45.77
2019-03-23T04:12:10.426Z,47.77
2019-03-23T04:14:40.696Z,53.83
2019-03-23T04:17:11.102Z,47.70
2019-03-23T04:19:42.664Z,41.37
2019-03-23T04:22:12.956Z,44.07
2019-03-23T04:24:43.254Z,42.43
2019-03-23T04:27:13.669Z,50.40
2019-03-23T04:29:44.549Z,48.30
2019-03-23T04:32:14.875Z,45.43
2019-03-23T04:34:45.181Z,44.27
2019-03-23T04:37:15.422Z,47.60
2019-03-23T04:39:45.726Z,44.20
2019-03-23T04:42:16.123Z,46.37
2019-03-23T04:44:46.581Z,43.00
2019-03-23T04:47:16.869Z,43.93
2019-03-23T04:49:47.133Z,41.13
2019-03-23T04:52:17.453Z,42.10
2019-03-23T04:54:47.789Z,44.30
2019-03-23T04:57:18.230Z,41.13
2019-03-23T04:59:48.581Z,44.80
2019-03-23T05:02:18.973Z,44.77
2019-03-23T05:04:49.292Z,40.13
2019-03-23T05:07:20.225Z,40.70
2019-03-23T05:09:50.544Z,41.77
2019-03-23T05:12:20.992Z,43.10
2019-03-23T05:14:51.460Z,41.03
2019-03-23T05:17:21.903Z,40.60
2019-03-23T05:19:52.296Z,43.17
2019-03-23T05:22:22.646Z,39.27
2019-03-23T05:24:53.062Z,40.30
2019-03-23T05:27:23.456Z,43.27
2019-03-23T05:29:53.881Z,39.20
2019-03-23T05:32:24.260Z,36.17
2019-03-23T05:34:54.580Z,40.40
2019-03-23T05:37:24.970Z,44.67
2019-03-23T05:39:55.376Z,41.53
2019-03-23T05:42:25.712Z,49.40
2019-03-23T05:44:56.060Z,38.40
2019-03-23T05:47:26.448Z,40.00
2019-03-23T05:49:56.807Z,38.33
2019-03-23T05:52:27.153Z,61.50
2019-03-23T05:54:57.674Z,43.37
2019-03-23T05:57:29.532Z,39.77
2019-03-23T05:59:59.888Z,43.67
2019-03-23T06:02:30.284Z,56.47
2019-03-23T06:05:00.644Z,42.00
2019-03-23T06:07:31.041Z,56.20
2019-03-23T06:10:03.501Z,41.13
2019-03-23T06:12:33.846Z,40.70
2019-03-23T06:15:04.958Z,59.18
2019-03-23T06:17:35.284Z,49.87
2019-03-23T06:20:06.020Z,52.07
2019-03-23T06:22:36.300Z,44.03
2019-03-23T06:25:06.756Z,44.30
2019-03-23T06:27:37.135Z,51.40
2019-03-23T06:30:07.951Z,59.90
2019-03-23T06:32:38.298Z,45.97
2019-03-23T06:35:08.741Z,47.43
2019-03-23T06:37:39.020Z,51.83
2019-03-23T06:40:09.590Z,59.90
2019-03-23T06:42:40.206Z,37.13
2019-03-23T06:45:11.032Z,65.40
2019-03-23T06:47:41.501Z,43.23
2019-03-23T06:50:12.724Z,50.97
2019-03-23T06:52:42.980Z,61.27
2019-03-23T06:55:13.393Z,73.23
2019-03-23T06:57:43.798Z,53.93
2019-03-23T07:00:14.223Z,75.00
2019-03-23T07:02:44.596Z,46.17
2019-03-23T07:05:14.988Z,44.37
2019-03-23T07:07:45.330Z,43.43
2019-03-23T07:10:15.952Z,73.77
2019-03-23T07:12:46.229Z,59.03
2019-03-23T07:15:20.323Z,70.17
2019-03-23T07:17:48.567Z,44.60
2019-03-23T07:20:18.947Z,72.50
2019-03-23T07:22:49.542Z,52.07
2019-03-23T07:25:19.899Z,44.70
2019-03-23T07:27:50.286Z,48.07
2019-03-23T07:30:20.808Z,69.97
2019-03-23T07:32:51.094Z,45.30
2019-03-23T07:35:21.406Z,57.53
2019-03-23T07:37:51.791Z,56.23
2019-03-23T07:40:22.475Z,57.27
2019-03-23T07:42:52.732Z,61.13
2019-03-23T07:45:23.154Z,50.63
2019-03-23T07:47:53.441Z,60.10
2019-03-23T07:50:23.967Z,58.73
2019-03-23T07:52:54.318Z,51.00
2019-03-23T07:55:24.612Z,55.83
2019-03-23T07:57:54.925Z,59.53
2019-03-23T08:00:25.265Z,55.33
2019-03-23T08:02:55.646Z,64.30
2019-03-23T08:05:27.291Z,61.97
2019-03-23T08:07:57.667Z,62.63
2019-03-23T08:10:28.857Z,66.40
2019-03-23T08:12:59.344Z,51.83
2019-03-23T08:15:29.918Z,51.90
2019-03-23T08:18:00.483Z,72.17
2019-03-23T08:20:31.060Z,48.00
2019-03-23T08:23:01.432Z,63.40
2019-03-23T08:25:31.779Z,70.17
2019-03-23T08:28:02.524Z,52.93
2019-03-23T08:30:32.995Z,62.57
2019-03-23T08:33:04.158Z,54.83
2019-03-23T08:35:34.563Z,64.80
2019-03-23T08:38:05.028Z,50.20
2019-03-23T08:40:36.020Z,64.33
2019-03-23T08:43:06.703Z,62.87
2019-03-23T08:45:37.391Z,55.40
2019-03-23T08:48:07.729Z,60.60
2019-03-23T08:50:38.086Z,48.93
2019-03-23T08:53:08.741Z,54.77
2019-03-23T08:55:39.191Z,50.50
2019-03-23T08:58:09.577Z,58.63
2019-03-23T09:00:39.847Z,61.93
2019-03-23T09:03:10.299Z,57.40
2019-03-23T09:05:40.649Z,47.87
2019-03-23T09:08:10.999Z,50.77
2019-03-23T09:10:41.318Z,56.57
2019-03-23T09:13:11.591Z,60.90
2019-03-23T09:15:42.171Z,49.83
2019-03-23T09:18:12.557Z,52.33
2019-03-23T09:20:43.065Z,55.53
2019-03-23T09:23:13.348Z,55.03
2019-03-23T09:25:45.612Z,61.90
2019-03-23T09:28:15.627Z,60.63
2019-03-23T09:30:46.426Z,49.73
2019-03-23T09:33:17.738Z,47.33
2019-03-23T09:35:48.123Z,46.10
2019-03-23T09:38:18.463Z,58.77
2019-03-23T09:40:49.006Z,61.57
2019-03-23T09:43:19.329Z,49.27
2019-03-23T09:45:50.088Z,50.50
2019-03-23T09:48:20.663Z,53.20
2019-03-23T09:50:51.236Z,47.47
2019-03-23T09:53:21.652Z,47.07
2019-03-23T09:55:52.178Z,56.43
2019-03-23T09:58:22.533Z,51.60
2019-03-23T10:00:52.765Z,50.00
2019-03-23T10:03:23.383Z,41.20
2019-03-23T10:05:53.773Z,46.37
2019-03-23T10:08:24.177Z,52.77
2019-03-23T10:10:54.578Z,48.07
2019-03-23T10:13:27.534Z,43.67
2019-03-23T10:15:58.180Z,54.57
2019-03-23T10:18:28.497Z,50.10
2019-03-23T10:20:59.758Z,47.33
2019-03-23T10:23:30.051Z,53.50
2019-03-23T10:26:00.358Z,44.40
2019-03-23T10:28:32.330Z,56.60
2019-03-23T10:31:02.727Z,44.73
2019-03-23T10:33:33.035Z,55.97
2019-03-23T10:36:03.478Z,43.43
2019-03-23T10:38:33.800Z,43.83
2019-03-23T10:41:04.899Z,44.80
2019-03-23T10:43:35.167Z,46.43
2019-03-23T10:46:05.507Z,57.50
2019-03-23T10:48:36.841Z,48.23
2019-03-23T10:51:07.219Z,40.87
2019-03-23T10:53:37.452Z,40.17
2019-03-23T10:56:07.746Z,53.33
2019-03-23T10:58:38.102Z,47.93
2019-03-23T11:01:08.394Z,46.17
2019-03-23T11:03:38.685Z,46.97
2019-03-23T11:06:08.990Z,43.43
2019-03-23T11:08:39.290Z,41.30
2019-03-23T11:11:09.567Z,42.13
2019-03-23T11:13:39.951Z,42.40
2019-03-23T11:16:10.238Z,47.67
2019-03-23T11:18:40.563Z,45.27
2019-03-23T11:21:10.935Z,37.90
2019-03-23T11:23:41.326Z,52.67
2019-03-23T11:26:11.671Z,38.67
2019-03-23T11:28:42.004Z,43.23
2019-03-23T11:31:12.241Z,40.83
2019-03-23T11:33:42.530Z,44.57
2019-03-23T11:36:12.899Z,42.83
2019-03-23T11:38:43.211Z,47.37
2019-03-23T11:41:13.584Z,44.73
2019-03-23T11:43:44.004Z,37.80
2019-03-23T11:46:16.819Z,48.93
2019-03-23T11:48:46.289Z,46.43
2019-03-23T11:51:16.578Z,41.50
2019-03-23T11:53:46.915Z,41.37
2019-03-23T11:56:17.232Z,44.30
2019-03-23T11:58:47.550Z,41.60
2019-03-23T12:01:17.883Z,41.17
2019-03-23T12:03:48.268Z,37.30
2019-03-23T12:06:19.567Z,39.30
2019-03-23T12:08:49.953Z,37.77
2019-03-23T12:11:20.340Z,40.90
2019-03-23T12:13:50.583Z,35.50
2019-03-23T12:16:20.965Z,37.43
2019-03-23T12:18:51.228Z,35.97
2019-03-23T12:21:21.607Z,33.60
2019-03-23T12:23:51.858Z,32.00
2019-03-23T12:26:22.140Z,33.07
2019-03-23T12:28:54.832Z,32.20
2019-03-23T12:31:25.251Z,33.30
2019-03-23T12:33:55.733Z,36.23
2019-03-23T12:36:26.118Z,33.90
2019-03-23T12:38:58.856Z,31.03
2019-03-23T12:41:29.201Z,33.17
2019-03-23T12:43:59.452Z,30.87
2019-03-23T12:46:29.801Z,28.70
2019-03-23T12:49:00.260Z,29.20
2019-03-23T12:51:30.687Z,24.23
2019-03-23T12:54:01.043Z,23.27
2019-03-23T12:56:31.391Z,27.83
2019-03-23T12:59:02.721Z,21.00
2019-03-23T13:01:33.096Z,22.80
2019-03-23T13:04:04.268Z,19.67
2019-03-23T13:06:34.617Z,17.03
2019-03-23T13:09:06.245Z,19.33
2019-03-23T13:11:36.593Z,20.03
2019-03-23T13:14:07.041Z,18.03
2019-03-23T13:16:37.344Z,15.47
2019-03-23T13:19:07.679Z,16.80
2019-03-23T13:21:37.949Z,15.47
2019-03-23T13:24:08.441Z,15.27
2019-03-23T13:26:39.891Z,17.10
2019-03-23T13:29:10.281Z,14.60
2019-03-23T13:31:40.621Z,13.80
2019-03-23T13:34:10.909Z,19.23
2019-03-23T13:36:41.240Z,12.20
2019-03-23T13:39:11.561Z,16.40
2019-03-23T13:41:48.006Z,12.77
2019-03-23T13:44:18.363Z,17.03
2019-03-23T13:46:48.716Z,9.50
2019-03-23T13:49:19.194Z,10.23
2019-03-23T13:51:49.573Z,10.30
2019-03-23T13:54:19.931Z,11.97
2019-03-23T13:56:50.358Z,9.83
2019-03-23T13:59:20.706Z,12.83
2019-03-23T14:01:51.021Z,8.67
2019-03-23T14:04:21.550Z,10.10
2019-03-23T14:06:51.921Z,11.10
2019-03-23T14:09:22.219Z,8.47
2019-03-23T14:11:55.135Z,7.53
2019-03-23T14:14:24.611Z,8.10
2019-03-23T14:16:54.959Z,10.97
2019-03-23T14:19:25.467Z,13.30
2019-03-23T14:21:55.798Z,5.93
2019-03-23T14:24:26.224Z,6.07
2019-03-23T14:26:57.960Z,9.50
2019-03-23T14:29:28.212Z,6.90
2019-03-23T14:31:58.693Z,6.83
2019-03-23T14:34:29.123Z,4.60
2019-03-23T14:36:59.398Z,8.00
2019-03-23T14:39:31.195Z,4.77
2019-03-23T14:42:05.017Z,8.73
2019-03-23T14:44:33.678Z,6.37
2019-03-23T14:47:04.201Z,10.87
2019-03-23T14:49:34.440Z,8.50
2019-03-23T14:52:04.745Z,8.23
2019-03-23T14:54:35.018Z,8.53
2019-03-23T14:57:05.364Z,9.57
2019-03-23T14:59:35.876Z,6.53
2019-03-23T15:02:06.237Z,5.63
2019-03-23T15:04:36.481Z,6.40
2019-03-23T15:07:07.034Z,12.20
2019-03-23T15:09:37.406Z,6.50
2019-03-23T15:12:14.779Z,5.72
2019-03-23T15:14:42.590Z,6.17
2019-03-23T15:17:12.866Z,6.07
2019-03-23T15:19:43.224Z,5.37
2019-03-23T15:22:14.513Z,8.03
2019-03-23T15:24:44.888Z,7.93
2019-03-23T15:27:15.220Z,5.37
2019-03-23T15:29:45.449Z,8.17
2019-03-23T15:32:15.965Z,3.10
2019-03-23T15:34:46.596Z,7.77
2019-03-23T15:37:17.255Z,6.73
2019-03-23T15:39:47.968Z,10.43
2019-03-23T15:42:24.663Z,7.50
2019-03-23T15:44:50.746Z,5.60
2019-03-23T15:47:21.055Z,9.70
2019-03-23T15:49:51.490Z,6.20
2019-03-23T15:52:21.920Z,5.33
2019-03-23T15:54:52.330Z,5.30
2019-03-23T15:57:22.608Z,11.23
2019-03-23T15:59:53.033Z,8.20
2019-03-23T16:02:26.571Z,5.23
2019-03-23T16:04:57.100Z,10.10
2019-03-23T16:07:29.692Z,8.73
2019-03-23T16:09:59.358Z,6.77
2019-03-23T16:12:34.700Z,5.97
2019-03-23T16:15:01.583Z,8.63
2019-03-23T16:17:31.939Z,6.83
2019-03-23T16:20:02.488Z,9.07
2019-03-23T16:22:33.305Z,8.67
2019-03-23T16:25:05.049Z,10.30
2019-03-23T16:27:35.702Z,6.40
2019-03-23T16:30:08.231Z,10.37
2019-03-23T16:32:38.677Z,11.70
2019-03-23T16:35:09.052Z,9.83
2019-03-23T16:37:39.474Z,8.57
2019-03-23T16:40:11.022Z,7.07
2019-03-23T16:42:45.622Z,9.97
2019-03-23T16:45:14.262Z,9.63
2019-03-23T16:51:07.965Z,9.07
2019-03-23T16:53:41.289Z,6.60
2019-03-23T16:56:12.601Z,9.20
2019-03-23T16:58:45.386Z,9.83
2019-03-23T17:01:15.847Z,6.97
2019-03-23T17:03:46.247Z,8.53
2019-03-23T17:06:16.521Z,7.57
2019-03-23T17:08:47.057Z,10.63
2019-03-23T17:11:17.312Z,7.30
2019-03-23T17:13:47.532Z,6.07
2019-03-23T17:16:17.904Z,9.87
2019-03-23T17:18:48.225Z,10.97
2019-03-23T17:21:18.590Z,7.80
2019-03-23T17:23:48.829Z,6.00
2019-03-23T17:26:19.159Z,6.50
2019-03-23T17:28:49.451Z,7.37
2019-03-23T17:31:19.861Z,7.53
2019-03-23T17:33:50.153Z,6.77
2019-03-23T17:36:20.554Z,7.53
2019-03-23T17:38:50.924Z,7.70
2019-03-23T17:41:21.261Z,6.13
2019-03-23T17:43:51.692Z,12.37
2019-03-23T17:46:22.167Z,10.70
2019-03-23T17:48:52.403Z,8.23
2019-03-23T17:51:22.714Z,10.60
2019-03-23T17:53:58.438Z,5.67
2019-03-23T17:56:25.323Z,8.87
2019-03-23T17:58:55.613Z,12.37
2019-03-23T18:01:26.065Z,8.17
2019-03-23T18:03:59.163Z,5.30
2019-03-23T18:06:29.405Z,10.87
2019-03-23T18:08:59.746Z,7.60
2019-03-23T18:11:30.392Z,9.43
2019-03-23T18:14:00.765Z,7.03
2019-03-23T18:16:31.163Z,6.23
2019-03-23T18:19:01.453Z,8.43
2019-03-23T18:21:31.799Z,11.27
2019-03-23T18:24:03.709Z,12.60
2019-03-23T18:26:34.039Z,7.03
2019-03-23T18:29:04.921Z,5.83
2019-03-23T18:31:35.535Z,11.90
2019-03-23T18:34:05.882Z,5.20
2019-03-23T18:36:36.427Z,8.10
2019-03-23T18:39:07.034Z,7.87
2019-03-23T18:41:37.767Z,6.07
2019-03-23T18:44:16.244Z,9.80
2019-03-23T18:46:41.189Z,5.97
2019-03-23T18:49:11.639Z,13.43
2019-03-23T18:51:41.920Z,7.57
2019-03-23T18:54:12.438Z,14.47
2019-03-23T18:56:42.830Z,10.47
2019-03-23T18:59:13.110Z,8.90
2019-03-23T19:01:44.943Z,11.10
2019-03-23T19:04:15.258Z,11.33
2019-03-23T19:06:45.500Z,7.40
2019-03-23T19:09:16.139Z,10.37
2019-03-23T19:11:46.643Z,8.57
2019-03-23T19:14:20.028Z,6.63
2019-03-23T19:16:50.427Z,8.47
2019-03-23T19:19:20.924Z,9.00
2019-03-23T19:21:51.613Z,9.43
2019-03-23T19:24:21.971Z,11.57
2019-03-23T19:26:52.648Z,6.13
2019-03-23T19:29:23.285Z,9.47
2019-03-23T19:31:53.754Z,9.60
2019-03-23T19:34:27.142Z,12.83
2019-03-23T19:36:59.060Z,7.00
2019-03-23T19:39:29.516Z,9.80
2019-03-23T19:42:00.150Z,13.83
2019-03-23T19:44:30.580Z,10.50
2019-03-23T19:47:01.308Z,10.20
2019-03-23T19:49:32.984Z,7.90
2019-03-23T19:52:29.979Z,5.77
2019-03-23T19:55:00.359Z,9.20
2019-03-23T19:57:30.917Z,9.27
2019-03-23T20:00:01.475Z,9.13
2019-03-23T20:02:32.329Z,8.97
2019-03-23T20:05:02.707Z,10.20
2019-03-23T20:07:34.353Z,7.47
2019-03-23T20:10:05.466Z,7.78
2019-03-23T20:12:37.033Z,7.80
2019-03-23T20:15:09.220Z,9.73
2019-03-23T20:17:40.076Z,13.77
2019-03-23T20:29:29.983Z,7.07
2019-03-23T20:32:00.567Z,4.50
2019-03-23T20:40:39.125Z,6.97
2019-03-23T20:43:09.743Z,9.80
2019-03-23T20:45:42.031Z,8.30
2019-03-23T20:48:12.554Z,6.47
2019-03-23T20:50:44.139Z,9.37
2019-03-23T20:53:15.925Z,5.20
2019-03-23T20:55:46.285Z,7.33
2019-03-23T20:58:16.911Z,8.57
2019-03-23T21:00:48.840Z,9.93
2019-03-23T21:03:19.429Z,5.33
2019-03-23T21:05:51.947Z,7.93
2019-03-23T21:08:22.525Z,9.10
2019-03-23T21:10:54.450Z,9.23
2019-03-23T21:13:24.910Z,5.03
2019-03-23T21:15:55.134Z,5.60
2019-03-23T21:18:25.538Z,9.53
2019-03-23T21:20:59.362Z,10.23
2019-03-23T21:23:30.002Z,8.73
2019-03-23T21:26:00.757Z,6.30
2019-03-23T21:28:32.449Z,6.60
2019-03-23T21:31:03.205Z,7.47
2019-03-23T21:33:38.907Z,6.00
2019-03-23T21:36:05.733Z,7.30
2019-03-23T21:38:36.084Z,7.53
2019-03-23T21:41:06.629Z,5.53
2019-03-23T21:43:38.072Z,8.07
2019-03-23T21:46:08.558Z,7.77
2019-03-23T21:48:39.040Z,10.20
2019-03-23T21:51:09.449Z,6.45
2019-03-23T21:53:39.973Z,6.33
2019-03-23T21:56:10.554Z,10.17
2019-03-23T21:58:40.999Z,7.67
2019-03-23T22:01:11.581Z,5.90
2019-03-23T22:03:41.936Z,9.80
2019-03-23T22:06:12.313Z,6.70
2019-03-23T22:08:42.879Z,9.00
2019-03-23T22:11:13.428Z,7.37
2019-03-23T22:13:43.983Z,11.63
2019-03-23T22:16:14.405Z,6.40
2019-03-23T22:18:44.840Z,7.13
2019-03-23T22:21:15.378Z,7.97
2019-03-23T22:23:46.010Z,9.47
2019-03-23T22:26:16.443Z,7.27
2019-03-23T22:28:47.939Z,9.03
2019-03-23T22:31:18.679Z,3.98
2019-03-23T22:33:49.467Z,9.17
2019-03-23T22:36:20.722Z,8.20
2019-03-23T22:38:51.624Z,11.27
2019-03-23T22:41:21.889Z,8.47
2019-03-23T22:43:52.357Z,4.33
2019-03-23T22:46:22.671Z,4.90
2019-03-23T22:48:53.682Z,9.37
2019-03-23T22:51:24.119Z,6.75
2019-03-23T22:53:55.489Z,5.47
2019-03-23T22:56:27.216Z,8.40
2019-03-23T22:58:57.650Z,9.70
2019-03-23T23:01:27.980Z,8.23
2019-03-23T23:03:58.279Z,9.60
2019-03-23T23:06:28.651Z,7.80
2019-03-23T23:08:59.026Z,7.30
2019-03-23T23:11:29.485Z,9.67
2019-03-23T23:13:59.853Z,5.70
2019-03-23T23:16:30.269Z,6.53
2019-03-23T23:19:00.641Z,7.00
2019-03-23T23:21:31.012Z,8.93
2019-03-23T23:24:02.510Z,3.47
2019-03-23T23:26:32.951Z,6.67
2019-03-23T23:29:04.151Z,7.13
2019-03-23T23:31:34.511Z,9.47
2019-03-23T23:34:04.781Z,5.17
2019-03-23T23:36:35.136Z,4.60
2019-03-23T23:39:06.822Z,5.37
2019-03-23T23:41:37.128Z,7.13
2019-03-23T23:44:07.508Z,9.07
2019-03-23T23:46:37.888Z,5.13
2019-03-23T23:49:08.304Z,4.63
2019-03-23T23:51:49.623Z,5.50
2019-03-23T23:54:11.617Z,11.57
2019-03-23T23:56:42.957Z,8.10
2019-03-23T23:59:14.009Z,4.87
